Time;durP1;ratioP1;P1;durP2;ratioP2;P2;SDS_P1;SDS_P2;PMS_P1;PMS_P2;Temp;Humidity;BMP_temperature;BMP_pressure;BME280_temperature;BME280_humidity;BME280_pressure;Samples;Min_cycle;Max_cycle;Signal;HPM_P1;HPM_P2
2022/07/10 00:02:12;;;;;;;2.38;2.25;;;24.10;72.40;;;;;;5078941;28;20665;-72
2022/07/10 00:04:39;;;;;;;4.00;2.38;;;24.00;71.50;;;;;;5092968;28;20205;-72
2022/07/10 00:07:07;;;;;;;2.63;2.42;;;24.00;72.80;;;;;;5092460;28;20197;-72
2022/07/10 00:09:33;;;;;;;3.20;2.17;;;24.00;73.50;;;;;;5093017;28;20237;-71
2022/07/10 00:12:00;;;;;;;4.20;3.80;;;24.00;73.80;;;;;;5079457;28;20596;-72
2022/07/10 00:14:29;;;;;;;4.85;3.97;;;24.00;73.80;;;;;;5092181;28;20270;-72
2022/07/10 00:16:56;;;;;;;6.75;3.70;;;23.90;72.50;;;;;;5092408;28;20258;-72
2022/07/10 00:19:23;;;;;;;3.63;2.97;;;23.80;73.70;;;;;;5092523;28;20205;-72
2022/07/10 00:21:49;;;;;;;2.58;2.40;;;23.60;74.40;;;;;;5093171;28;20209;-72
2022/07/10 00:24:16;;;;;;;2.47;2.28;;;23.50;75.50;;;;;;5092808;28;20209;-72
2022/07/10 00:26:43;;;;;;;3.75;3.03;;;23.40;76.40;;;;;;5092592;28;20681;-72
2022/07/10 00:29:10;;;;;;;5.93;3.30;;;23.30;76.10;;;;;;5092233;28;20233;-72
2022/07/10 00:31:39;;;;;;;2.97;2.53;;;23.40;76.30;;;;;;5092733;28;20255;-72
2022/07/10 00:34:06;;;;;;;3.50;2.80;;;23.30;77.00;;;;;;5092114;28;20205;-72
2022/07/10 00:36:33;;;;;;;4.75;2.60;;;23.30;77.70;;;;;;5092568;28;20201;-72
2022/07/10 00:39:00;;;;;;;2.90;2.70;;;23.20;79.00;;;;;;5091879;28;20213;-72
2022/07/10 00:41:27;;;;;;;3.08;2.50;;;23.10;77.30;;;;;;5092296;28;20254;-72
2022/07/10 00:43:55;;;;;;;3.38;3.03;;;23.10;80.40;;;;;;5092009;28;20562;-72
2022/07/10 00:46:22;;;;;;;3.45;2.30;;;23.10;79.40;;;;;;5091987;28;20229;-72
2022/07/10 00:48:50;;;;;;;4.22;2.42;;;23.00;79.30;;;;;;5092449;28;20254;-72
2022/07/10 00:51:19;;;;;;;4.47;3.33;;;23.00;80.60;;;;;;5092426;28;20251;-72
2022/07/10 00:53:47;;;;;;;2.88;2.60;;;23.00;81.00;;;;;;5092541;28;20201;-72
2022/07/10 00:56:17;;;;;;;2.92;2.55;;;23.00;79.50;;;;;;5091952;28;20205;-72
2022/07/10 00:58:46;;;;;;;3.65;2.60;;;23.00;79.60;;;;;;5092217;28;20212;-72
2022/07/10 01:01:13;;;;;;;3.95;2.65;;;23.00;79.80;;;;;;5091700;28;20263;-72
2022/07/10 01:03:40;;;;;;;2.40;2.20;;;23.00;80.50;;;;;;5092005;28;20263;-72
2022/07/10 01:06:08;;;;;;;3.92;2.40;;;23.00;82.00;;;;;;5091858;28;20201;-72
2022/07/10 01:08:36;;;;;;;3.10;2.25;;;22.80;82.10;;;;;;5091686;28;20246;-72
2022/07/10 01:11:04;;;;;;;2.65;2.45;;;22.80;81.80;;;;;;5086191;28;20229;-72
2022/07/10 01:13:31;;;;;;;3.83;2.25;;;22.70;99.90;;;;;;5082984;28;20263;-72
2022/07/10 01:15:59;;;;;;;2.78;2.45;;;22.70;82.30;;;;;;5091477;28;20628;-72
2022/07/10 01:18:27;;;;;;;2.88;2.30;;;22.70;79.70;;;;;;5091828;28;20262;-72
2022/07/10 01:20:56;;;;;;;2.40;2.20;;;22.70;83.20;;;;;;5091188;28;20619;-72
2022/07/10 01:23:24;;;;;;;3.30;2.25;;;22.60;82.50;;;;;;5091521;28;20723;-72
2022/07/10 01:25:51;;;;;;;3.40;2.72;;;22.50;83.50;;;;;;5091307;28;20213;-72
2022/07/10 01:28:19;;;;;;;2.95;2.75;;;22.50;82.70;;;;;;5091823;28;20255;-72
2022/07/10 01:30:46;;;;;;;3.50;2.35;;;22.40;86.20;;;;;;5091943;28;20286;-72
2022/07/10 01:33:13;;;;;;;3.28;2.75;;;22.20;84.80;;;;;;5091016;28;20266;-72
2022/07/10 01:35:40;;;;;;;2.63;2.10;;;22.30;85.70;;;;;;5091632;28;20750;-72
2022/07/10 01:38:08;;;;;;;5.03;2.83;;;22.10;84.50;;;;;;5090754;28;20202;-72
2022/07/10 01:40:35;;;;;;;2.70;2.50;;;22.10;88.10;;;;;;5091106;28;20907;-72
2022/07/10 01:43:02;;;;;;;2.72;2.30;;;22.10;89.00;;;;;;5090860;28;20270;-72
2022/07/10 01:45:30;;;;;;;2.75;2.47;;;22.10;88.90;;;;;;5091582;28;20206;-72
2022/07/10 01:47:57;;;;;;;3.42;2.83;;;22.00;90.20;;;;;;5090802;28;20201;-72
2022/07/10 01:50:24;;;;;;;2.88;2.67;;;21.90;90.50;;;;;;5091174;28;20684;-72
2022/07/10 01:52:51;;;;;;;3.22;2.92;;;21.90;91.30;;;;;;5090674;28;20209;-72
2022/07/10 01:55:19;;;;;;;3.92;2.97;;;21.90;91.20;;;;;;5091353;28;20201;-72
2022/07/10 01:57:46;;;;;;;4.13;2.72;;;21.80;91.80;;;;;;5091625;28;20254;-72
2022/07/10 02:00:14;;;;;;;3.13;2.92;;;21.80;91.40;;;;;;5090409;28;20673;-72
2022/07/10 02:02:41;;;;;;;3.30;3.00;;;21.70;91.90;;;;;;5091025;28;20205;-72
2022/07/10 02:05:07;;;;;;;2.28;2.17;;;21.70;92.60;;;;;;5090615;28;20266;-72
2022/07/10 02:07:34;;;;;;;4.18;3.25;;;21.70;92.50;;;;;;5090037;28;20202;-72
2022/07/10 02:10:01;;;;;;;4.20;2.95;;;21.60;92.90;;;;;;5090140;28;20786;-72
2022/07/10 02:12:29;;;;;;;6.38;3.25;;;21.60;92.60;;;;;;5076273;28;20213;-72
2022/07/10 02:14:59;;;;;;;3.20;2.58;;;21.60;93.60;;;;;;5090529;28;20595;-72
2022/07/10 02:17:26;;;;;;;2.95;2.70;;;21.60;93.20;;;;;;5090802;28;20205;-72
2022/07/10 02:19:53;;;;;;;5.38;3.08;;;21.50;99.90;;;;;;5090232;28;20206;-72
2022/07/10 02:22:20;;;;;;;2.95;2.72;;;21.50;93.50;;;;;;5090584;28;20622;-72
2022/07/10 02:24:47;;;;;;;2.83;2.50;;;21.50;92.90;;;;;;5077000;28;20209;-72
2022/07/10 02:27:14;;;;;;;3.58;2.53;;;21.40;93.20;;;;;;5090303;28;20258;-72
2022/07/10 02:29:42;;;;;;;5.15;3.08;;;21.40;93.60;;;;;;5090551;28;20225;-72
2022/07/10 02:32:09;;;;;;;3.47;3.00;;;21.40;94.00;;;;;;5090260;28;20206;-72
2022/07/10 02:34:36;;;;;;;3.13;2.83;;;21.40;94.50;;;;;;5090371;28;20353;-72
2022/07/10 02:37:03;;;;;;;3.95;2.50;;;21.30;94.50;;;;;;5090234;28;20255;-72
2022/07/10 02:39:30;;;;;;;2.92;2.33;;;21.30;94.60;;;;;;5090459;28;20243;-72
2022/07/10 02:41:57;;;;;;;6.30;2.53;;;21.20;94.60;;;;;;5087967;28;20251;-72
2022/07/10 02:44:24;;;;;;;3.08;2.22;;;21.20;95.10;;;;;;5069079;28;20205;-72
2022/07/10 02:46:52;;;;;;;2.58;2.28;;;21.20;95.30;;;;;;5073636;28;20201;-72
2022/07/10 02:49:19;;;;;;;3.63;3.03;;;21.20;95.50;;;;;;5078543;28;20256;-72
2022/07/10 02:51:46;;;;;;;2.40;2.20;;;21.30;97.20;;;;;;5083362;28;20206;-72
2022/07/10 02:54:13;;;;;;;2.72;2.50;;;21.10;96.00;;;;;;5084025;28;20275;-72
2022/07/10 02:56:40;;;;;;;3.50;2.42;;;21.00;98.70;;;;;;5090400;28;20673;-72
2022/07/10 02:59:07;;;;;;;4.30;2.83;;;21.00;97.40;;;;;;5089976;28;20236;-72
2022/07/10 03:01:34;;;;;;;4.00;2.60;;;21.00;96.50;;;;;;5075956;28;20262;-72
2022/07/10 03:04:02;;;;;;;2.53;2.33;;;21.10;97.10;;;;;;5089710;28;20657;-72
2022/07/10 03:06:29;;;;;;;3.72;2.33;;;21.20;97.60;;;;;;5090096;28;20209;-71
2022/07/10 03:08:56;;;;;;;2.15;1.88;;;21.20;97.10;;;;;;5090219;28;20208;-72
2022/07/10 03:11:23;;;;;;;3.70;2.47;;;21.10;99.60;;;;;;5090094;28;20636;-72
2022/07/10 03:13:50;;;;;;;2.40;2.15;;;21.00;97.70;;;;;;5090231;28;20315;-72
2022/07/10 03:16:17;;;;;;;4.43;2.30;;;20.90;99.90;;;;;;5090372;28;20334;-72
2022/07/10 03:18:45;;;;;;;2.60;2.40;;;20.70;99.00;;;;;;5076880;28;20566;-72
2022/07/10 03:21:13;;;;;;;3.90;2.40;;;20.70;98.50;;;;;;5093669;28;20206;-72
2022/07/10 03:23:40;;;;;;;5.50;2.38;;;20.80;99.90;;;;;;5093812;28;20657;-72
2022/07/10 03:26:07;;;;;;;3.47;2.35;;;20.90;99.40;;;;;;5093467;28;20251;-72
2022/07/10 03:28:34;;;;;;;2.53;2.00;;;20.80;99.90;;;;;;5093876;28;20205;-72
2022/07/10 03:31:02;;;;;;;3.45;2.13;;;20.70;99.20;;;;;;5093347;28;20320;-72
2022/07/10 03:33:29;;;;;;;2.67;2.47;;;20.70;99.90;;;;;;5093641;28;20292;-72
2022/07/10 03:35:56;;;;;;;2.92;2.10;;;20.70;99.90;;;;;;5093433;28;20259;-72
2022/07/10 03:38:25;;;;;;;4.03;2.33;;;20.80;99.10;;;;;;5093947;28;20251;-72
2022/07/10 03:40:52;;;;;;;3.22;2.83;;;20.80;99.90;;;;;;5093312;28;20212;-72
2022/07/10 03:43:19;;;;;;;3.75;2.53;;;20.70;99.20;;;;;;5093875;28;20213;-72
2022/07/10 03:45:46;;;;;;;2.88;2.33;;;20.60;99.70;;;;;;5093842;28;20230;-72
2022/07/10 03:48:13;;;;;;;2.63;2.15;;;20.60;99.70;;;;;;5093339;28;20201;-72
2022/07/10 03:50:40;;;;;;;2.50;2.30;;;20.60;99.80;;;;;;5092413;28;20237;-72
2022/07/10 03:53:07;;;;;;;3.22;2.50;;;20.60;99.90;;;;;;5079755;28;20223;-72
2022/07/10 03:55:36;;;;;;;2.75;2.55;;;20.50;99.90;;;;;;5093313;28;20209;-72
2022/07/10 03:58:02;;;;;;;3.92;2.13;;;20.60;99.90;;;;;;5093088;28;20254;-72
2022/07/10 04:00:31;;;;;;;4.05;2.60;;;20.50;99.80;;;;;;5093354;28;20288;-72
2022/07/10 04:02:59;;;;;;;3.78;2.58;;;20.40;99.90;;;;;;5092301;28;20224;-72
2022/07/10 04:05:26;;;;;;;2.85;2.58;;;20.10;99.90;;;;;;5093208;28;20757;-72
2022/07/10 04:07:54;;;;;;;4.15;3.42;;;20.10;99.90;;;;;;5092684;28;20263;-72
2022/07/10 04:10:21;;;;;;;3.22;2.38;;;20.10;99.90;;;;;;5093084;28;20316;-72
2022/07/10 04:12:50;;;;;;;3.33;2.80;;;20.00;99.90;;;;;;5093300;28;20217;-72
2022/07/10 04:15:17;;;;;;;2.25;2.05;;;20.10;99.90;;;;;;5093547;28;20205;-72
2022/07/10 04:17:44;;;;;;;2.35;2.00;;;20.10;99.90;;;;;;5093149;28;20205;-72
2022/07/10 04:20:12;;;;;;;2.65;2.13;;;20.10;99.90;;;;;;5092295;28;20209;-72
2022/07/10 04:22:39;;;;;;;3.13;2.08;;;19.90;99.90;;;;;;5092981;28;20640;-72
2022/07/10 04:25:07;;;;;;;2.45;2.25;;;19.80;99.90;;;;;;5092295;28;20198;-72
2022/07/10 04:27:34;;;;;;;3.78;1.88;;;19.70;99.90;;;;;;5092921;28;20209;-72
2022/07/10 04:30:03;;;;;;;2.72;2.33;;;19.70;99.90;;;;;;5091545;28;20233;-72
2022/07/10 04:32:30;;;;;;;1.90;1.80;;;19.80;99.90;;;;;;5092638;28;20278;-72
2022/07/10 04:34:57;;;;;;;3.40;2.90;;;19.80;99.90;;;;;;5092195;28;20267;-72
2022/07/10 04:37:24;;;;;;;1.90;1.80;;;19.90;99.90;;;;;;5092642;28;20210;-72
2022/07/10 04:39:51;;;;;;;4.13;2.78;;;19.90;99.90;;;;;;5092027;28;20209;-72
2022/07/10 04:42:18;;;;;;;2.70;2.35;;;19.90;99.90;;;;;;5092973;28;20205;-72
2022/07/10 04:44:45;;;;;;;2.75;1.73;;;19.90;99.90;;;;;;5092736;28;20209;-72
2022/07/10 04:47:13;;;;;;;3.03;2.28;;;19.90;99.90;;;;;;5091893;28;20259;-72
2022/07/10 04:49:40;;;;;;;2.30;2.13;;;19.90;99.90;;;;;;5092330;28;20259;-72
2022/07/10 04:52:07;;;;;;;3.78;3.03;;;19.90;99.90;;;;;;5078872;28;20233;-71
2022/07/10 04:54:34;;;;;;;2.90;2.13;;;19.90;99.90;;;;;;5091104;28;20202;-72
2022/07/10 04:57:01;;;;;;;2.88;2.30;;;19.90;99.90;;;;;;5091917;28;20206;-72
2022/07/10 04:59:28;;;;;;;2.47;2.28;;;19.90;99.90;;;;;;5091337;28;20288;-72
2022/07/10 05:01:55;;;;;;;3.05;2.13;;;20.00;99.90;;;;;;5092086;28;20209;-72
2022/07/10 05:04:23;;;;;;;2.72;2.53;;;20.00;99.90;;;;;;5091214;28;20202;-72
2022/07/10 05:06:50;;;;;;;3.88;2.60;;;20.10;99.90;;;;;;5092152;28;20262;-72
2022/07/10 05:09:19;;;;;;;2.55;2.35;;;20.00;99.90;;;;;;5091868;28;20233;-72
2022/07/10 05:11:46;;;;;;;3.50;3.00;;;19.90;99.90;;;;;;5092095;28;20362;-72
2022/07/10 05:14:13;;;;;;;4.20;2.50;;;19.90;99.90;;;;;;5092004;28;20213;-72
2022/07/10 05:16:40;;;;;;;3.67;2.85;;;20.00;99.90;;;;;;5091548;28;20205;-72
2022/07/10 05:19:07;;;;;;;2.47;2.28;;;20.10;99.90;;;;;;5091731;28;20275;-73
2022/07/10 05:21:36;;;;;;;7.70;2.72;;;20.20;99.90;;;;;;5091077;28;20278;-71
2022/07/10 05:24:02;;;;;;;2.97;2.42;;;20.20;99.90;;;;;;5091710;28;20251;-71
2022/07/10 05:26:29;;;;;;;3.00;2.70;;;20.20;99.90;;;;;;5090981;28;20213;-71
2022/07/10 05:28:56;;;;;;;2.05;1.95;;;20.30;99.90;;;;;;5091729;28;20290;-72
2022/07/10 05:31:23;;;;;;;3.58;3.00;;;20.30;99.90;;;;;;5090951;28;20651;-72
2022/07/10 05:33:50;;;;;;;2.30;2.10;;;20.30;99.90;;;;;;5091450;28;20230;-72
2022/07/10 05:36:17;;;;;;;2.55;2.35;;;20.30;99.90;;;;;;5091432;28;20744;-72
2022/07/10 05:38:46;;;;;;;3.03;2.60;;;20.40;99.90;;;;;;5091227;28;20228;-72
2022/07/10 05:41:13;;;;;;;3.67;2.47;;;20.30;99.90;;;;;;5091109;28;20295;-72
2022/07/10 05:43:40;;;;;;;2.67;2.47;;;20.40;99.90;;;;;;5090113;28;20206;-72
2022/07/10 05:46:06;;;;;;;3.55;2.88;;;20.40;99.90;;;;;;5091404;28;20282;-72
2022/07/10 05:48:34;;;;;;;4.22;2.75;;;20.50;99.90;;;;;;5090659;28;20255;-72
2022/07/10 05:51:01;;;;;;;2.70;2.50;;;20.60;99.90;;;;;;5087511;28;20286;-72
2022/07/10 05:53:27;;;;;;;4.43;2.50;;;20.60;99.90;;;;;;5080420;28;20209;-71
2022/07/10 05:56:00;;;;;;;2.83;2.50;;;20.70;99.90;;;;;;5090891;28;20205;-72
2022/07/10 05:58:27;;;;;;;3.42;3.00;;;20.70;99.90;;;;;;5090680;28;20259;-72
2022/07/10 06:00:54;;;;;;;3.30;2.53;;;20.90;99.90;;;;;;5090822;28;20273;-72
2022/07/10 06:03:21;;;;;;;3.03;2.50;;;21.00;99.90;;;;;;5090609;28;20628;-72
2022/07/10 06:05:48;;;;;;;3.40;2.40;;;21.00;99.90;;;;;;5091167;28;20209;-71
2022/07/10 06:08:15;;;;;;;5.80;3.17;;;21.20;99.90;;;;;;5090932;28;20205;-72
2022/07/10 06:10:43;;;;;;;5.63;3.40;;;21.40;99.90;;;;;;5090584;28;20649;-72
2022/07/10 06:13:12;;;;;;;2.85;2.58;;;21.50;99.90;;;;;;5090841;28;20722;-72
2022/07/10 06:15:39;;;;;;;4.57;2.90;;;21.60;99.90;;;;;;5090387;28;20202;-72
2022/07/10 06:18:06;;;;;;;5.97;2.67;;;21.40;99.90;;;;;;5090774;28;20206;-72
2022/07/10 06:20:33;;;;;;;4.00;3.38;;;21.60;99.90;;;;;;5090437;28;20209;-71
2022/07/10 06:23:00;;;;;;;4.35;3.53;;;21.60;99.90;;;;;;5090734;28;20624;-72
2022/07/10 06:25:27;;;;;;;3.45;2.35;;;21.70;99.90;;;;;;5090201;28;20255;-72
2022/07/10 06:27:54;;;;;;;4.43;2.70;;;21.70;99.90;;;;;;5090543;28;20259;-71
2022/07/10 06:30:22;;;;;;;6.70;3.78;;;21.80;99.90;;;;;;5090309;28;20208;-72
2022/07/10 06:32:49;;;;;;;3.53;2.90;;;22.00;99.90;;;;;;5090962;28;20205;-72
2022/07/10 06:35:16;;;;;;;3.53;2.33;;;22.00;99.90;;;;;;5090253;28;20275;-72
2022/07/10 06:37:43;;;;;;;2.45;2.25;;;22.00;99.90;;;;;;5090588;28;20311;-73
2022/07/10 06:40:13;;;;;;;3.63;3.33;;;22.10;99.90;;;;;;5090444;28;20348;-72
2022/07/10 06:42:40;;;;;;;3.20;3.00;;;22.20;99.90;;;;;;5090295;28;20205;-72
2022/07/10 06:45:08;;;;;;;4.07;2.85;;;22.20;99.90;;;;;;5090525;28;20576;-72
2022/07/10 06:50:22;;;;;;;4.93;2.30;;;22.50;99.90;;;;;;5090122;28;20350;-72
2022/07/10 06:52:49;;;;;;;3.15;2.95;;;22.60;99.90;;;;;;5076175;28;20312;-72
2022/07/10 06:55:17;;;;;;;2.80;2.60;;;22.80;99.90;;;;;;5094140;28;20201;-73
2022/07/10 06:57:44;;;;;;;3.88;3.13;;;22.80;99.90;;;;;;5094274;28;20294;-72
2022/07/10 07:00:12;;;;;;;9.20;3.55;;;22.80;99.90;;;;;;5094554;28;20223;-72
2022/07/10 07:02:40;;;;;;;3.78;3.38;;;22.90;99.90;;;;;;5094016;28;20581;-72
2022/07/10 07:05:08;;;;;;;3.15;2.85;;;22.90;99.90;;;;;;5094227;28;20201;-72
2022/07/10 07:07:35;;;;;;;3.78;2.95;;;22.90;99.90;;;;;;5093663;28;20325;-71
2022/07/10 07:10:03;;;;;;;4.15;3.17;;;23.00;99.90;;;;;;5094337;28;20205;-72
2022/07/10 07:12:30;;;;;;;3.58;2.60;;;23.20;99.90;;;;;;5093877;28;20643;-72
2022/07/10 07:14:57;;;;;;;4.10;2.90;;;23.30;99.90;;;;;;5093950;28;20251;-72
2022/07/10 07:17:25;;;;;;;2.38;2.17;;;23.40;99.90;;;;;;5093729;28;20209;-72
2022/07/10 07:25:25;;;;;;;3.70;3.40;;;24.10;99.90;;;;;;5080110;28;20286;-72
2022/07/10 07:27:52;;;;;;;4.50;2.60;;;24.10;99.90;;;;;;5094287;28;20205;-71
2022/07/10 07:30:19;;;;;;;3.50;3.08;;;24.30;99.90;;;;;;5093679;28;20258;-72
2022/07/10 07:32:47;;;;;;;4.70;3.20;;;24.30;99.90;;;;;;5093780;28;20233;-72
2022/07/10 07:35:17;;;;;;;3.42;3.13;;;24.20;99.90;;;;;;5093786;28;20221;-72
2022/07/10 07:37:45;;;;;;;3.05;2.78;;;24.30;99.90;;;;;;5093817;28;20311;-72
2022/07/10 07:40:14;;;;;;;4.63;2.65;;;24.40;99.90;;;;;;5093663;28;20228;-72
2022/07/10 07:42:41;;;;;;;6.07;3.00;;;24.60;99.90;;;;;;5093777;28;20206;-72
2022/07/10 07:45:10;;;;;;;4.35;2.60;;;24.50;99.90;;;;;;5093430;28;20213;-72
2022/07/10 07:47:44;;;;;;;2.85;2.65;;;24.50;99.90;;;;;;5093530;28;20262;-71
2022/07/10 07:50:11;;;;;;;4.97;2.80;;;24.40;99.90;;;;;;5093287;28;20204;-72
2022/07/10 07:52:40;;;;;;;4.30;3.15;;;24.70;99.90;;;;;;5078435;28;20267;-72
2022/07/10 07:55:07;;;;;;;4.18;3.67;;;24.80;99.90;;;;;;5093453;28;20201;-72
2022/07/10 07:57:34;;;;;;;6.82;3.88;;;25.00;99.90;;;;;;5092769;28;20258;-72
2022/07/10 08:00:01;;;;;;;4.03;2.47;;;25.10;99.60;;;;;;5093634;28;20255;-72
2022/07/10 08:02:28;;;;;;;4.20;3.08;;;25.10;99.50;;;;;;5093123;28;20205;-72
2022/07/10 08:04:55;;;;;;;3.03;2.83;;;25.30;99.80;;;;;;5077927;28;20197;-72
2022/07/10 08:07:22;;;;;;;3.75;3.05;;;25.60;99.90;;;;;;5093270;28;20201;-72
2022/07/10 08:09:51;;;;;;;5.28;2.83;;;25.80;99.30;;;;;;5093334;28;20209;-72
2022/07/10 08:12:18;;;;;;;3.42;2.85;;;26.10;99.90;;;;;;5092602;28;20266;-72
2022/07/10 08:14:46;;;;;;;2.92;2.47;;;28.20;99.90;;;;;;5093048;28;20213;-72
2022/07/10 08:17:13;;;;;;;4.55;2.50;;;29.00;99.90;;;;;;5093120;28;20208;-72
2022/07/10 08:19:39;;;;;;;2.70;2.50;;;27.90;98.50;;;;;;5092361;28;20274;-72
2022/07/10 08:22:07;;;;;;;3.33;3.08;;;27.50;97.70;;;;;;5093012;28;20201;-72
2022/07/10 08:24:34;;;;;;;3.30;2.70;;;27.00;97.70;;;;;;5092473;28;20212;-73
2022/07/10 08:27:02;;;;;;;4.20;3.13;;;27.20;98.40;;;;;;5092762;28;20209;-72
2022/07/10 08:29:29;;;;;;;3.42;3.10;;;28.10;99.50;;;;;;5092531;28;20205;-72
2022/07/10 08:31:56;;;;;;;3.30;2.83;;;27.70;97.20;;;;;;5092541;28;20650;-72
2022/07/10 08:34:23;;;;;;;4.32;2.78;;;27.50;97.80;;;;;;5092324;28;20624;-72
2022/07/10 08:36:50;;;;;;;3.13;2.83;;;27.50;97.10;;;;;;5092916;28;20209;-72
2022/07/10 08:39:20;;;;;;;2.35;2.10;;;27.40;96.60;;;;;;5092029;28;20209;-72
2022/07/10 08:41:50;;;;;;;9.85;3.08;;;27.50;96.50;;;;;;5092230;28;20797;-72
2022/07/10 08:44:18;;;;;;;3.13;2.63;;;27.50;95.50;;;;;;5092493;28;20212;-72
2022/07/10 08:46:45;;;;;;;2.40;2.20;;;27.60;96.50;;;;;;5092515;28;20201;-72
2022/07/10 08:49:13;;;;;;;3.45;3.03;;;27.70;95.80;;;;;;5092339;28;20237;-72
2022/07/10 08:51:46;;;;;;;4.68;2.58;;;27.80;95.60;;;;;;5082777;28;20230;-72
2022/07/10 08:54:15;;;;;;;2.72;2.22;;;28.20;96.30;;;;;;5088090;28;20201;-72
2022/07/10 08:56:42;;;;;;;2.67;2.47;;;29.40;96.80;;;;;;5092505;28;20254;-72
2022/07/10 08:59:10;;;;;;;3.22;2.03;;;30.20;95.60;;;;;;5092183;28;20202;-72
2022/07/10 09:01:38;;;;;;;4.07;2.13;;;29.80;95.30;;;;;;5091767;28;20631;-72
2022/07/10 09:04:05;;;;;;;2.70;2.50;;;29.20;95.20;;;;;;5091777;28;20278;-72
2022/07/10 09:06:32;;;;;;;2.65;2.45;;;29.60;94.50;;;;;;5091683;28;20583;-73
2022/07/10 09:09:02;;;;;;;2.72;2.40;;;29.50;94.30;;;;;;5092030;28;20262;-72
2022/07/10 09:11:30;;;;;;;3.03;2.80;;;29.40;94.30;;;;;;5091564;28;20237;-72
2022/07/10 09:13:59;;;;;;;2.28;2.08;;;30.10;94.50;;;;;;5091906;28;20744;-73
2022/07/10 09:16:27;;;;;;;2.20;2.00;;;30.90;94.70;;;;;;5091262;28;20292;-72
2022/07/10 09:18:57;;;;;;;2.03;1.90;;;32.80;96.80;;;;;;5091891;28;20206;-72
2022/07/10 09:21:25;;;;;;;3.90;2.78;;;34.60;97.70;;;;;;5091715;28;20208;-72
2022/07/10 09:23:56;;;;;;;2.60;2.40;;;36.20;97.10;;;;;;5092532;28;20201;-72
2022/07/10 09:26:24;;;;;;;2.15;2.05;;;34.40;96.90;;;;;;5091382;28;20209;-72
2022/07/10 09:29:05;;;;;;;4.30;2.60;;;33.40;94.90;;;;;;5091917;28;20208;-73
2022/07/10 09:31:49;;;;;;;2.72;2.53;;;32.10;93.60;;;;;;5090886;28;20209;-73
2022/07/10 09:34:17;;;;;;;3.03;2.72;;;32.30;95.80;;;;;;5091387;28;20212;-73
2022/07/10 09:36:44;;;;;;;2.72;2.53;;;34.80;97.60;;;;;;5091373;28;20635;-73
2022/07/10 09:39:11;;;;;;;2.60;2.40;;;36.80;99.90;;;;;;5091532;28;20238;-72
2022/07/10 09:41:39;;;;;;;2.97;2.78;;;37.40;99.90;;;;;;5090768;28;20616;-73
2022/07/10 09:44:08;;;;;;;2.47;2.28;;;38.40;99.90;;;;;;5091354;28;20200;-73
2022/07/10 09:46:36;;;;;;;2.55;2.35;;;39.20;99.90;;;;;;5090898;28;20244;-73
2022/07/10 09:49:08;;;;;;;3.00;2.42;;;41.20;99.90;;;;;;5091004;28;20200;-73
2022/07/10 09:51:38;;;;;;;3.13;2.45;;;42.70;99.90;;;;;;5082446;28;20205;-73
2022/07/10 09:54:06;;;;;;;2.53;2.33;;;40.40;99.90;;;;;;5085807;28;20262;-73
2022/07/10 09:56:44;;;;;;;2.80;2.60;;;41.60;99.90;;;;;;5090712;28;20204;-73
2022/07/10 09:59:13;;;;;;;5.05;3.08;;;42.20;99.90;;;;;;5090842;28;20220;-73
2022/07/10 10:01:45;;;;;;;2.92;2.72;;;39.80;99.90;;;;;;5090301;28;20718;-73
2022/07/10 10:04:13;;;;;;;2.40;2.28;;;37.00;99.90;;;;;;5090849;28;20209;-73
2022/07/10 10:06:43;;;;;;;3.38;2.60;;;36.00;98.50;;;;;;5090676;28;20333;-74
2022/07/10 10:09:16;;;;;;;2.92;2.72;;;35.70;98.00;;;;;;5090953;28;20616;-73
2022/07/10 10:11:45;;;;;;;2.42;2.22;;;37.00;99.90;;;;;;5090771;28;20208;-74
2022/07/10 10:14:14;;;;;;;2.90;2.70;;;38.40;99.90;;;;;;5090984;28;20230;-73
2022/07/10 10:16:44;;;;;;;2.65;2.45;;;41.20;99.90;;;;;;5090284;28;20228;-73
2022/07/10 10:21:58;;;;;;;2.42;2.22;;;40.00;99.90;;;;;;5076996;28;20238;-74
2022/07/10 10:24:27;;;;;;;2.35;2.20;;;39.60;99.90;;;;;;5090899;28;20204;-73
2022/07/10 10:26:54;;;;;;;2.78;2.60;;;41.90;99.90;;;;;;5091016;28;20279;-73
2022/07/10 10:29:21;;;;;;;2.60;2.20;;;42.60;99.90;;;;;;5089979;28;20258;-73
2022/07/10 10:31:48;;;;;;;2.10;2.00;;;42.10;99.90;;;;;;5090239;28;20227;-73
2022/07/10 10:34:39;;;;;;;3.45;2.00;;;42.70;99.90;;;;;;5090495;28;20592;-73
2022/07/10 10:37:28;;;;;;;2.25;2.05;;;44.20;99.90;;;;;;5090617;28;20211;-73
2022/07/10 10:39:56;;;;;;;2.00;1.90;;;44.30;99.90;;;;;;5090639;28;20205;-72
2022/07/10 10:42:37;;;;;;;2.60;2.40;;;41.90;99.90;;;;;;5090535;28;20266;-72
2022/07/10 10:45:23;;;;;;;1.95;1.75;;;35.00;78.50;;;;;;5090414;28;20213;-71
2022/07/10 10:48:01;;;;;;;1.88;1.77;;;33.40;73.50;;;;;;5090672;28;20282;-71
2022/07/10 10:50:47;;;;;;;2.83;2.40;;;32.30;71.00;;;;;;5089907;28;20208;-71
2022/07/10 10:53:16;;;;;;;1.90;1.75;;;31.70;68.20;;;;;;5074922;28;20236;-72
2022/07/10 10:56:17;;;;;;;3.10;2.30;;;31.60;69.20;;;;;;5069562;28;20254;-71
2022/07/10 10:58:45;;;;;;;2.10;1.90;;;31.90;70.70;;;;;;5069850;28;20677;-70
2022/07/10 11:01:26;;;;;;;2.60;2.50;;;31.90;69.70;;;;;;5069797;28;20681;-71
2022/07/10 11:04:19;;;;;;;3.20;2.13;;;30.70;64.10;;;;;;5070637;28;20220;-71
2022/07/10 11:06:48;;;;;;;4.10;2.17;;;31.40;69.00;;;;;;5073481;28;20197;-71
2022/07/10 11:09:27;;;;;;;2.17;1.60;;;31.60;68.20;;;;;;5084341;28;20205;-71
2022/07/10 11:12:05;;;;;;;2.45;2.25;;;31.80;66.20;;;;;;5088304;28;20208;-71
2022/07/10 11:14:33;;;;;;;1.90;1.80;;;31.70;67.20;;;;;;5085423;28;20205;-72
2022/07/10 11:17:00;;;;;;;3.35;2.10;;;31.70;66.90;;;;;;5086798;28;20204;-71
2022/07/10 11:19:29;;;;;;;4.78;4.38;;;31.50;66.50;;;;;;5076351;28;20213;-71
2022/07/10 11:22:08;;;;;;;3.67;2.60;;;31.80;67.20;;;;;;5070213;28;20263;-71
2022/07/10 11:24:43;;;;;;;2.10;1.98;;;32.20;66.90;;;;;;5069687;28;20229;-71
2022/07/10 11:27:30;;;;;;;3.55;1.92;;;32.20;67.40;;;;;;5069807;28;20656;-71
2022/07/10 11:30:00;;;;;;;2.30;2.10;;;32.50;66.20;;;;;;5069703;28;20201;-72
2022/07/10 11:32:28;;;;;;;1.55;1.45;;;32.40;66.60;;;;;;5069503;28;20233;-72
2022/07/10 11:34:56;;;;;;;1.85;1.70;;;32.40;67.30;;;;;;5070007;28;20335;-71
2022/07/10 11:37:27;;;;;;;2.10;1.90;;;32.30;67.80;;;;;;5069860;28;20206;-72
2022/07/10 11:40:09;;;;;;;1.70;1.60;;;32.50;67.30;;;;;;5071576;28;20283;-71
2022/07/10 11:42:50;;;;;;;1.45;1.33;;;32.40;65.10;;;;;;5072572;28;20205;-71
2022/07/10 11:45:30;;;;;;;2.55;2.10;;;32.50;64.70;;;;;;5073066;28;20205;-71
2022/07/10 11:47:58;;;;;;;2.03;1.92;;;32.50;67.40;;;;;;5073363;28;20205;-71
2022/07/10 11:50:26;;;;;;;2.33;2.08;;;32.20;65.80;;;;;;5073024;28;20210;-71
2022/07/10 11:52:54;;;;;;;3.20;1.77;;;32.50;63.60;;;;;;5077994;28;20730;-72
2022/07/10 11:55:24;;;;;;;3.58;1.95;;;32.30;61.90;;;;;;5093151;28;20209;-71
2022/07/10 11:57:52;;;;;;;2.13;1.88;;;32.60;63.60;;;;;;5093299;28;20296;-71
2022/07/10 12:00:24;;;;;;;2.45;1.40;;;32.80;63.80;;;;;;5093171;28;20266;-72
2022/07/10 12:02:51;;;;;;;2.42;2.13;;;32.80;92.30;;;;;;5093284;28;20248;-71
2022/07/10 12:05:34;;;;;;;1.77;1.60;;;33.00;64.60;;;;;;5092975;28;20538;-71
2022/07/10 12:08:02;;;;;;;2.35;1.40;;;32.80;64.10;;;;;;5093450;28;20288;-71
2022/07/10 12:10:31;;;;;;;1.73;1.63;;;33.20;64.50;;;;;;5093293;28;20208;-70
2022/07/10 12:13:06;;;;;;;2.35;1.95;;;32.80;61.40;;;;;;5092996;28;20282;-71
2022/07/10 12:15:34;;;;;;;3.17;2.88;;;32.70;61.80;;;;;;5092707;28;20593;-71
2022/07/10 12:18:01;;;;;;;2.58;1.77;;;32.80;62.60;;;;;;5092805;28;20205;-71
2022/07/10 12:20:29;;;;;;;2.42;2.22;;;33.10;63.90;;;;;;5093262;28;20204;-71
2022/07/10 12:22:56;;;;;;;1.65;1.55;;;33.00;63.50;;;;;;5093204;28;20262;-71
2022/07/10 12:25:23;;;;;;;2.30;1.75;;;33.00;62.60;;;;;;5092815;28;20212;-71
2022/07/10 12:27:56;;;;;;;2.13;1.70;;;33.10;62.40;;;;;;5092834;28;20664;-72
2022/07/10 12:30:23;;;;;;;2.40;2.20;;;33.20;62.60;;;;;;5092327;28;20205;-71
2022/07/10 12:32:50;;;;;;;2.20;1.98;;;33.30;62.60;;;;;;5092671;28;20608;-71
2022/07/10 12:35:20;;;;;;;3.10;1.95;;;33.30;61.90;;;;;;5089581;28;20677;-70
2022/07/10 12:37:50;;;;;;;2.08;1.80;;;33.30;61.70;;;;;;5090239;28;20201;-71
2022/07/10 12:40:33;;;;;;;2.38;2.17;;;33.40;62.30;;;;;;5088466;28;20665;-71
2022/07/10 12:43:06;;;;;;;2.00;1.90;;;33.60;61.40;;;;;;5091143;28;20197;-72
2022/07/10 12:45:34;;;;;;;2.47;2.28;;;33.70;62.90;;;;;;5090643;28;20208;-72
2022/07/10 12:48:04;;;;;;;2.65;2.00;;;33.80;64.50;;;;;;5092071;28;20228;-72
2022/07/10 12:50:31;;;;;;;2.33;1.52;;;33.80;63.30;;;;;;5086632;28;20197;-71
2022/07/10 12:53:11;;;;;;;4.15;1.85;;;33.90;63.20;;;;;;5089779;28;20341;-72
2022/07/10 12:55:41;;;;;;;2.13;1.67;;;34.00;61.80;;;;;;5090515;28;20205;-72
2022/07/10 12:58:11;;;;;;;1.92;1.75;;;33.70;60.70;;;;;;5091055;28;20208;-72
2022/07/10 13:00:46;;;;;;;1.83;1.70;;;33.90;61.00;;;;;;5081712;28;20585;-72
2022/07/10 13:03:19;;;;;;;1.73;1.63;;;33.90;61.40;;;;;;5087572;28;20200;-71
2022/07/10 13:05:46;;;;;;;2.85;2.00;;;33.80;59.50;;;;;;5089706;28;20673;-72
2022/07/10 13:08:16;;;;;;;2.65;1.60;;;34.00;61.00;;;;;;5088739;28;20204;-72